createdAt,value
2023-04-24T00:01:05.807Z,47.78
2023-04-24T00:03:34.868Z,46.88
2023-04-24T00:06:04.304Z,47.73
2023-04-24T00:08:32.696Z,48.59
2023-04-24T00:11:01.023Z,48.59
2023-04-24T00:13:30.340Z,49.94
2023-04-24T00:15:58.780Z,50.17
2023-04-24T00:18:27.257Z,50.84
2023-04-24T00:20:55.616Z,50.82
2023-04-24T00:23:23.938Z,51.05
2023-04-24T00:25:52.229Z,51.46
2023-04-24T00:28:21.094Z,51.70
2023-04-24T00:30:49.323Z,51.94
2023-04-24T00:33:17.766Z,52.01
2023-04-24T00:35:46.268Z,52.69
2023-04-24T00:38:14.671Z,51.94
2023-04-24T00:40:42.952Z,52.42
2023-04-24T00:43:11.721Z,52.66
2023-04-24T00:45:40.065Z,52.53
2023-04-24T00:48:09.731Z,52.18
2023-04-24T00:50:41.453Z,51.88
2023-04-24T00:53:10.041Z,52.07
2023-04-24T00:55:39.263Z,52.30
2023-04-24T00:58:07.588Z,51.82
2023-04-24T01:00:36.955Z,52.61
2023-04-24T01:03:08.033Z,52.37
2023-04-24T01:05:36.584Z,52.49
2023-04-24T01:08:05.424Z,52.43
2023-04-24T01:10:37.108Z,52.30
2023-04-24T01:13:05.563Z,52.32
2023-04-24T01:15:33.928Z,52.54
2023-04-24T01:18:02.283Z,52.15
2023-04-24T01:20:31.959Z,52.44
2023-04-24T01:23:00.558Z,52.37
2023-04-24T01:25:30.239Z,52.16
2023-04-24T01:27:59.188Z,52.08
2023-04-24T01:30:28.502Z,51.86
2023-04-24T01:32:57.972Z,52.07
2023-04-24T01:35:27.222Z,51.82
2023-04-24T01:37:55.648Z,51.89
2023-04-24T01:40:24.059Z,51.89
2023-04-24T01:42:53.250Z,51.56
2023-04-24T01:45:21.866Z,51.52
2023-04-24T01:47:51.860Z,50.92
2023-04-24T01:50:20.808Z,51.84
2023-04-24T01:52:49.084Z,51.77
2023-04-24T01:55:17.375Z,51.60
2023-04-24T01:57:45.609Z,51.54
2023-04-24T02:00:14.226Z,51.45
2023-04-24T02:02:45.709Z,51.51
2023-04-24T02:05:16.110Z,51.58
2023-04-24T02:07:44.401Z,51.35
2023-04-24T02:10:13.144Z,51.35
2023-04-24T02:12:41.471Z,51.47
2023-04-24T02:15:10.672Z,51.21
2023-04-24T02:17:38.916Z,51.04
2023-04-24T02:20:10.468Z,51.23
2023-04-24T02:22:38.789Z,51.40
2023-04-24T02:25:07.853Z,51.29
2023-04-24T02:27:36.098Z,51.15
2023-04-24T02:30:05.074Z,50.29
2023-04-24T02:32:33.340Z,49.75
2023-04-24T02:35:01.602Z,50.32
2023-04-24T02:37:29.912Z,51.43
2023-04-24T02:39:58.209Z,51.86
2023-04-24T02:42:26.591Z,52.65
2023-04-24T02:44:54.965Z,52.58
2023-04-24T02:47:23.383Z,52.42
2023-04-24T02:49:51.641Z,51.92
2023-04-24T02:52:19.888Z,52.52
2023-04-24T02:54:48.155Z,52.30
2023-04-24T02:57:16.987Z,51.11
2023-04-24T02:59:45.297Z,52.18
2023-04-24T03:02:14.035Z,52.60
2023-04-24T03:04:42.454Z,52.31
2023-04-24T03:07:11.154Z,52.10
2023-04-24T03:09:43.474Z,52.12
2023-04-24T03:12:11.981Z,52.24
2023-04-24T03:14:40.755Z,52.35
2023-04-24T03:17:08.984Z,52.59
2023-04-24T03:19:37.326Z,52.47
2023-04-24T03:22:06.229Z,51.80
2023-04-24T03:24:34.500Z,52.82
2023-04-24T03:27:02.728Z,51.92
2023-04-24T03:29:31.115Z,52.37
2023-04-24T03:31:59.464Z,52.04
2023-04-24T03:34:28.273Z,52.82
2023-04-24T03:36:56.567Z,52.53
2023-04-24T03:39:24.871Z,51.97
2023-04-24T03:41:53.100Z,52.00
2023-04-24T03:44:21.424Z,51.36
2023-04-24T03:46:49.788Z,52.33
2023-04-24T03:49:18.066Z,52.96
2023-04-24T03:51:46.343Z,52.90
2023-04-24T03:54:15.567Z,53.02
2023-04-24T03:56:43.844Z,53.19
2023-04-24T03:59:12.220Z,52.88
2023-04-24T04:01:43.903Z,53.50
2023-04-24T04:04:12.643Z,52.50
2023-04-24T04:06:41.747Z,52.15
2023-04-24T04:09:10.542Z,53.88
2023-04-24T04:11:39.042Z,53.52
2023-04-24T04:14:07.911Z,53.26
2023-04-24T04:16:38.130Z,52.86
2023-04-24T04:19:07.312Z,53.05
2023-04-24T04:21:35.601Z,52.79
2023-04-24T04:24:03.939Z,53.31
2023-04-24T04:26:34.434Z,53.13
2023-04-24T04:29:02.834Z,52.87
2023-04-24T04:31:32.066Z,53.07
2023-04-24T04:34:00.780Z,53.65
2023-04-24T04:36:31.226Z,53.33
2023-04-24T04:39:01.228Z,53.38
2023-04-24T04:41:29.976Z,52.78
2023-04-24T04:44:00.478Z,52.89
2023-04-24T04:46:28.735Z,52.67
2023-04-24T04:48:58.604Z,53.26
2023-04-24T04:51:26.965Z,52.44
2023-04-24T04:53:55.532Z,52.86
2023-04-24T04:56:24.194Z,53.65
2023-04-24T04:58:52.431Z,53.14
2023-04-24T05:01:21.112Z,52.53
2023-04-24T05:03:49.551Z,53.65
2023-04-24T05:06:18.099Z,53.61
2023-04-24T05:08:46.594Z,53.54
2023-04-24T05:11:14.971Z,52.74
2023-04-24T05:13:43.305Z,52.93
2023-04-24T05:16:11.789Z,52.39
2023-04-24T05:18:40.155Z,53.08
2023-04-24T05:21:08.569Z,53.59
2023-04-24T05:23:36.869Z,54.24
2023-04-24T05:26:07.355Z,54.66
2023-04-24T05:28:38.379Z,55.74
2023-04-24T05:31:07.344Z,56.09
2023-04-24T05:33:35.668Z,56.85
2023-04-24T05:36:03.946Z,56.80
2023-04-24T05:38:32.284Z,57.65
2023-04-24T05:41:00.573Z,58.57
2023-04-24T05:43:29.337Z,59.24
2023-04-24T05:45:57.674Z,59.70
2023-04-24T05:48:26.361Z,60.03
2023-04-24T05:50:54.656Z,60.29
2023-04-24T05:53:22.914Z,60.51
2023-04-24T05:55:51.488Z,61.01
2023-04-24T05:58:19.729Z,61.56
2023-04-24T06:00:48.726Z,61.75
2023-04-24T06:03:17.713Z,62.15
2023-04-24T06:05:46.126Z,62.69
2023-04-24T06:08:14.914Z,63.22
2023-04-24T06:10:43.228Z,63.36
2023-04-24T06:13:11.616Z,63.47
2023-04-24T06:15:40.388Z,64.28
2023-04-24T06:18:08.727Z,63.82
2023-04-24T06:20:37.072Z,64.03
2023-04-24T06:23:05.918Z,64.34
2023-04-24T06:25:34.532Z,63.94
2023-04-24T06:28:04.165Z,63.66
2023-04-24T06:30:32.582Z,63.54
2023-04-24T06:33:09.213Z,63.91
2023-04-24T06:35:47.437Z,64.28
2023-04-24T06:38:15.979Z,63.73
2023-04-24T06:40:44.815Z,63.95
2023-04-24T06:43:13.742Z,63.77
2023-04-24T06:45:42.130Z,64.17
2023-04-24T06:48:10.563Z,64.06
2023-04-24T06:50:38.964Z,64.50
2023-04-24T06:53:07.283Z,64.18
2023-04-24T06:55:35.537Z,64.14
2023-04-24T06:58:03.854Z,64.08
2023-04-24T07:01:05.001Z,63.53
2023-04-24T07:03:33.604Z,64.43
2023-04-24T07:06:02.228Z,64.21
2023-04-24T07:08:32.552Z,64.33
2023-04-24T07:11:01.564Z,64.57
2023-04-24T07:13:29.874Z,64.87
2023-04-24T07:15:58.391Z,65.36
2023-04-24T07:18:26.716Z,65.30
2023-04-24T07:20:54.973Z,65.17
2023-04-24T07:23:23.269Z,64.98
2023-04-24T07:25:51.624Z,64.77
2023-04-24T07:28:20.452Z,65.00
2023-04-24T07:30:48.665Z,65.23
2023-04-24T07:33:17.417Z,65.92
2023-04-24T07:35:45.726Z,66.27
2023-04-24T07:38:14.029Z,66.13
2023-04-24T07:40:42.934Z,66.20
2023-04-24T07:43:11.690Z,66.09
2023-04-24T07:45:41.482Z,65.98
2023-04-24T07:48:10.855Z,65.84
2023-04-24T07:50:39.227Z,66.00
2023-04-24T07:53:07.445Z,66.25
2023-04-24T07:55:35.855Z,65.82
2023-04-24T07:58:04.545Z,66.39
2023-04-24T08:00:32.798Z,66.56
2023-04-24T08:03:01.226Z,66.78
2023-04-24T08:05:30.494Z,67.07
2023-04-24T08:07:58.857Z,67.07
2023-04-24T08:10:27.664Z,67.02
2023-04-24T08:12:57.202Z,66.97
2023-04-24T08:15:25.861Z,67.46
2023-04-24T08:17:54.286Z,67.35
2023-04-24T08:20:22.609Z,67.72
2023-04-24T08:22:51.045Z,67.80
2023-04-24T08:25:20.456Z,67.65
2023-04-24T08:27:48.763Z,67.90
2023-04-24T08:30:17.310Z,67.78
2023-04-24T08:32:46.435Z,67.88
2023-04-24T08:35:14.866Z,67.95
2023-04-24T08:37:43.289Z,67.74
2023-04-24T08:40:16.936Z,67.66
2023-04-24T08:42:46.403Z,68.09
2023-04-24T08:45:15.381Z,68.28
2023-04-24T08:47:44.462Z,68.64
2023-04-24T08:50:13.931Z,68.71
2023-04-24T08:52:44.047Z,68.71
2023-04-24T08:55:12.869Z,68.82
2023-04-24T08:57:42.181Z,69.08
2023-04-24T09:00:12.191Z,68.90
2023-04-24T09:02:54.893Z,69.13
2023-04-24T09:05:27.792Z,69.66
2023-04-24T09:07:58.335Z,69.60
2023-04-24T09:10:27.823Z,69.12
2023-04-24T09:12:57.335Z,68.97
2023-04-24T09:15:26.513Z,68.83
2023-04-24T09:17:54.862Z,69.41
2023-04-24T09:20:23.218Z,69.39
2023-04-24T09:22:57.381Z,68.88
2023-04-24T09:25:33.348Z,69.49
2023-04-24T09:28:07.805Z,69.00
2023-04-24T09:30:36.236Z,68.75
2023-04-24T09:33:16.922Z,68.90
2023-04-24T09:35:54.563Z,69.55
2023-04-24T09:38:44.005Z,69.12
2023-04-24T09:41:16.157Z,69.56
2023-04-24T09:43:45.006Z,69.73
2023-04-24T09:46:13.577Z,69.60
2023-04-24T09:48:42.383Z,69.57
2023-04-24T09:51:13.201Z,69.41
2023-04-24T09:53:41.970Z,69.34
2023-04-24T09:56:16.874Z,69.65
2023-04-24T09:58:45.146Z,70.29
2023-04-24T10:01:13.547Z,70.22
2023-04-24T10:03:45.045Z,69.71
2023-04-24T10:06:15.026Z,69.71
2023-04-24T10:08:44.194Z,69.61
2023-04-24T10:11:13.449Z,69.33
2023-04-24T10:13:42.530Z,69.56
2023-04-24T10:16:11.226Z,69.72
2023-04-24T10:18:41.629Z,69.48
2023-04-24T10:21:09.980Z,69.54
2023-04-24T10:23:39.508Z,69.88
2023-04-24T10:26:08.932Z,69.97
2023-04-24T10:28:39.163Z,69.70
2023-04-24T10:31:08.365Z,69.82
2023-04-24T10:33:37.068Z,69.80
2023-04-24T10:36:06.484Z,70.00
2023-04-24T10:38:36.001Z,70.34
2023-04-24T10:41:12.034Z,70.00
2023-04-24T10:43:42.945Z,70.59
2023-04-24T10:46:14.349Z,70.92
2023-04-24T10:48:46.197Z,70.13
2023-04-24T10:51:15.942Z,69.94
2023-04-24T10:53:44.258Z,70.48
2023-04-24T10:56:12.767Z,70.54
2023-04-24T10:58:46.754Z,70.63
2023-04-24T11:01:29.480Z,70.36
2023-04-24T11:04:04.519Z,70.29
2023-04-24T11:06:39.014Z,70.14
2023-04-24T11:09:09.114Z,70.03
2023-04-24T11:11:39.510Z,70.02
2023-04-24T11:14:09.286Z,69.73
2023-04-24T11:16:41.030Z,69.75
2023-04-24T11:19:20.799Z,70.16
2023-04-24T11:22:06.673Z,70.09
2023-04-24T11:24:50.076Z,70.24
2023-04-24T11:27:23.601Z,70.45
2023-04-24T11:29:58.089Z,70.16
2023-04-24T11:32:35.197Z,70.46
2023-04-24T11:35:29.498Z,69.67
2023-04-24T11:40:29.618Z,70.97
2023-04-24T11:42:58.058Z,71.39
2023-04-24T11:45:31.863Z,71.28
2023-04-24T11:48:00.876Z,71.21
2023-04-24T11:50:30.357Z,71.12
2023-04-24T11:52:59.014Z,70.62
2023-04-24T11:55:29.546Z,70.18
2023-04-24T11:58:00.762Z,70.13
2023-04-24T12:00:36.101Z,70.15
2023-04-24T12:03:14.710Z,69.97
2023-04-24T12:05:43.462Z,70.26
2023-04-24T12:08:11.852Z,70.20
2023-04-24T12:10:40.149Z,70.52
2023-04-24T12:13:13.248Z,70.36
2023-04-24T12:15:42.936Z,70.46
2023-04-24T12:18:15.007Z,70.16
2023-04-24T12:20:43.428Z,70.42
2023-04-24T12:23:11.883Z,70.23
2023-04-24T12:25:42.845Z,70.49
2023-04-24T12:28:13.663Z,70.33
2023-04-24T12:30:50.605Z,70.32
2023-04-24T12:33:23.721Z,70.69
2023-04-24T12:35:57.549Z,71.07
2023-04-24T12:38:28.415Z,70.95
2023-04-24T12:41:08.078Z,70.83
2023-04-24T12:43:37.280Z,71.38
2023-04-24T12:46:06.800Z,71.32
2023-04-24T12:48:35.237Z,71.35
2023-04-24T12:51:03.733Z,71.22
2023-04-24T12:53:32.906Z,71.10
2023-04-24T12:56:01.253Z,71.08
2023-04-24T12:58:32.392Z,71.18
2023-04-24T13:01:00.708Z,70.94
2023-04-24T13:03:29.089Z,70.93
2023-04-24T13:05:57.426Z,70.50
2023-04-24T13:08:25.939Z,70.34
2023-04-24T13:10:55.709Z,70.07
2023-04-24T13:13:24.208Z,70.13
2023-04-24T13:15:52.563Z,70.81
2023-04-24T13:18:21.390Z,71.44
2023-04-24T13:20:50.033Z,71.98
2023-04-24T13:23:21.151Z,72.48
2023-04-24T13:25:49.398Z,73.03
2023-04-24T13:28:17.691Z,73.25
2023-04-24T13:30:46.155Z,73.23
2023-04-24T13:33:14.889Z,73.23
2023-04-24T13:35:43.249Z,73.15
2023-04-24T13:38:12.106Z,73.04
2023-04-24T13:40:40.994Z,73.13
2023-04-24T13:43:09.226Z,73.27
2023-04-24T13:45:37.552Z,72.41
2023-04-24T13:48:05.991Z,71.46
2023-04-24T13:50:34.364Z,71.16
2023-04-24T13:53:03.273Z,70.76
2023-04-24T13:55:31.873Z,70.81
2023-04-24T13:58:01.027Z,70.74
2023-04-24T14:00:30.183Z,70.49
2023-04-24T14:02:58.570Z,70.40
2023-04-24T14:05:27.363Z,70.44
2023-04-24T14:07:55.618Z,70.35
2023-04-24T14:10:23.957Z,70.49
2023-04-24T14:12:53.457Z,70.67
2023-04-24T14:15:21.969Z,70.83
2023-04-24T14:17:51.837Z,71.12
2023-04-24T14:20:20.471Z,71.03
2023-04-24T14:22:49.231Z,71.20
2023-04-24T14:25:17.824Z,71.56
2023-04-24T14:27:46.295Z,71.64
2023-04-24T14:30:15.334Z,71.84
2023-04-24T14:32:43.767Z,71.82
2023-04-24T14:35:12.200Z,71.71
2023-04-24T14:37:42.952Z,71.96
2023-04-24T14:40:29.793Z,72.52
2023-04-24T14:43:00.396Z,72.34
2023-04-24T14:45:29.901Z,72.32
2023-04-24T14:47:58.919Z,71.67
2023-04-24T14:50:29.928Z,71.25
2023-04-24T14:53:03.935Z,71.13
2023-04-24T14:55:33.099Z,71.13
2023-04-24T14:58:01.537Z,71.23
2023-04-24T15:00:30.127Z,71.61
2023-04-24T15:02:58.644Z,71.76
2023-04-24T15:05:27.422Z,71.04
2023-04-24T15:08:00.963Z,71.24
2023-04-24T15:10:35.062Z,70.99
2023-04-24T15:13:06.877Z,70.91
2023-04-24T15:15:39.409Z,71.07
2023-04-24T15:18:10.137Z,70.86
2023-04-24T15:20:38.734Z,70.79
2023-04-24T15:23:11.303Z,70.60
2023-04-24T15:25:40.388Z,70.34
2023-04-24T15:28:08.751Z,69.76
2023-04-24T15:30:37.200Z,69.04
2023-04-24T15:33:08.768Z,69.60
2023-04-24T15:35:40.459Z,69.03
2023-04-24T15:38:08.799Z,69.37
2023-04-24T15:40:37.326Z,69.38
2023-04-24T15:43:05.930Z,69.82
2023-04-24T15:45:35.545Z,70.42
2023-04-24T15:48:06.975Z,69.53
2023-04-24T15:50:38.428Z,68.91
2023-04-24T15:53:07.616Z,67.12
2023-04-24T15:55:38.069Z,67.63
2023-04-24T15:58:06.669Z,66.76
2023-04-24T16:00:38.157Z,66.75
2023-04-24T16:03:10.207Z,66.60
2023-04-24T16:05:39.137Z,66.31
2023-04-24T16:08:08.471Z,65.40
2023-04-24T16:10:36.805Z,65.87
2023-04-24T16:13:05.959Z,65.09
2023-04-24T16:15:37.284Z,64.88
2023-04-24T16:18:08.400Z,65.54
2023-04-24T16:20:36.831Z,64.45
2023-04-24T16:23:06.058Z,64.78
2023-04-24T16:25:34.430Z,64.58
2023-04-24T16:28:02.774Z,63.90
2023-04-24T16:30:31.465Z,64.88
2023-04-24T16:32:59.967Z,65.69
2023-04-24T16:35:28.410Z,65.34
2023-04-24T16:37:57.243Z,65.33
2023-04-24T16:40:26.220Z,63.09
2023-04-24T16:42:55.738Z,61.68
2023-04-24T16:45:24.037Z,61.42
2023-04-24T16:47:52.480Z,61.49
2023-04-24T16:50:27.174Z,59.54
2023-04-24T16:52:56.211Z,59.71
2023-04-24T16:55:26.061Z,60.43
2023-04-24T16:57:57.761Z,60.17
2023-04-24T17:00:26.230Z,60.96
2023-04-24T17:02:54.602Z,61.21
2023-04-24T17:05:24.455Z,61.20
2023-04-24T17:07:52.949Z,60.35
2023-04-24T17:10:23.877Z,62.50
2023-04-24T17:12:54.564Z,60.50
2023-04-24T17:15:28.669Z,61.04
2023-04-24T17:17:58.527Z,59.64
2023-04-24T17:20:31.496Z,60.58
2023-04-24T17:22:59.841Z,59.47
2023-04-24T17:25:31.659Z,59.95
2023-04-24T17:28:36.330Z,59.58
2023-04-24T17:31:14.996Z,57.28
2023-04-24T17:33:43.385Z,58.23
2023-04-24T17:36:15.038Z,57.27
2023-04-24T17:38:43.498Z,57.81
2023-04-24T17:41:11.940Z,56.92
2023-04-24T17:43:43.133Z,56.41
2023-04-24T17:46:11.265Z,53.21
2023-04-24T17:48:39.718Z,55.16
2023-04-24T17:51:07.986Z,56.00
2023-04-24T17:53:37.382Z,54.81
2023-04-24T17:56:05.754Z,55.15
2023-04-24T17:58:37.489Z,57.71
2023-04-24T18:01:08.499Z,56.21
2023-04-24T18:03:37.071Z,54.77
2023-04-24T18:06:08.114Z,53.54
2023-04-24T18:08:36.702Z,54.51
2023-04-24T18:11:15.598Z,52.05
2023-04-24T18:13:43.945Z,52.65
2023-04-24T18:16:12.477Z,52.85
2023-04-24T18:18:40.799Z,52.84
2023-04-24T18:21:15.358Z,52.33
2023-04-24T18:23:43.998Z,51.92
2023-04-24T18:26:19.643Z,54.47
2023-04-24T18:28:48.357Z,53.91
2023-04-24T18:31:19.876Z,53.57
2023-04-24T18:33:50.982Z,51.97
2023-04-24T18:36:18.949Z,54.50
2023-04-24T18:38:47.440Z,53.15
2023-04-24T18:41:36.766Z,53.98
2023-04-24T18:44:07.805Z,53.48
2023-04-24T18:46:42.186Z,50.13
2023-04-24T18:49:13.488Z,52.20
2023-04-24T18:51:53.148Z,53.99
2023-04-24T18:54:23.297Z,52.41
2023-04-24T18:56:52.726Z,52.07
2023-04-24T18:59:22.425Z,50.61
2023-04-24T19:01:50.676Z,50.03
2023-04-24T19:04:21.748Z,48.93
2023-04-24T19:06:56.446Z,48.61
2023-04-24T19:09:24.865Z,49.24
2023-04-24T19:12:04.896Z,47.25
2023-04-24T19:14:39.936Z,46.00
2023-04-24T19:17:10.838Z,46.84
2023-04-24T19:19:43.208Z,48.01
2023-04-24T19:22:13.844Z,44.10
2023-04-24T19:24:42.344Z,43.23
2023-04-24T19:27:11.048Z,43.24
2023-04-24T19:29:39.466Z,42.83
2023-04-24T19:32:10.834Z,41.34
2023-04-24T19:34:40.575Z,42.50
2023-04-24T19:37:09.635Z,42.38
2023-04-24T19:39:38.898Z,42.31
2023-04-24T19:42:11.193Z,42.29
2023-04-24T19:44:39.690Z,42.07
2023-04-24T19:47:08.607Z,42.18
2023-04-24T19:49:40.449Z,42.10
2023-04-24T19:52:08.740Z,42.32
2023-04-24T19:54:39.537Z,41.83
2023-04-24T19:57:07.969Z,42.24
2023-04-24T19:59:38.866Z,42.28
2023-04-24T20:02:11.085Z,42.71
2023-04-24T20:04:40.272Z,42.60
2023-04-24T20:07:11.851Z,41.41
2023-04-24T20:09:40.918Z,41.78
2023-04-24T20:12:10.778Z,43.31
2023-04-24T20:14:39.010Z,42.04
2023-04-24T20:17:10.050Z,39.27
2023-04-24T20:19:41.786Z,38.60
2023-04-24T20:22:13.073Z,38.85
2023-04-24T20:24:42.068Z,39.88
2023-04-24T20:27:11.150Z,38.93
2023-04-24T20:29:39.411Z,39.53
2023-04-24T20:32:11.661Z,39.72
2023-04-24T20:34:40.277Z,38.35
2023-04-24T20:37:11.530Z,37.70
2023-04-24T20:39:40.272Z,39.42
2023-04-24T20:42:14.682Z,38.64
2023-04-24T20:44:43.226Z,39.18
2023-04-24T20:47:12.341Z,39.72
2023-04-24T20:49:41.780Z,39.74
2023-04-24T20:52:10.334Z,39.58
2023-04-24T20:54:39.133Z,39.31
2023-04-24T20:57:07.509Z,39.28
2023-04-24T20:59:35.808Z,39.05
2023-04-24T21:10:16.586Z,39.76
2023-04-24T21:13:11.042Z,40.21
2023-04-24T21:18:46.664Z,41.02
2023-04-24T21:21:15.057Z,38.92
2023-04-24T21:24:03.032Z,39.87
2023-04-24T21:27:15.774Z,39.16
2023-04-24T21:30:01.274Z,39.63
2023-04-24T21:32:33.456Z,39.35
2023-04-24T21:35:13.269Z,39.68
2023-04-24T21:41:12.982Z,38.42
2023-04-24T21:43:45.288Z,39.00
2023-04-24T21:46:14.693Z,38.50
2023-04-24T21:48:43.483Z,38.27
2023-04-24T21:51:15.422Z,38.14
2023-04-24T21:54:13.605Z,38.27
2023-04-24T22:00:12.223Z,37.56
2023-04-24T22:05:18.416Z,37.14
2023-04-24T22:11:25.639Z,36.84
2023-04-24T22:15:13.372Z,37.02
2023-04-24T22:17:44.447Z,37.24
2023-04-24T22:20:17.883Z,37.48
2023-04-24T22:22:57.035Z,37.77
2023-04-24T22:28:17.573Z,37.69
2023-04-24T22:39:58.707Z,37.75
2023-04-24T22:42:44.506Z,38.17
2023-04-24T22:45:16.442Z,38.29
2023-04-24T22:47:45.188Z,38.51
2023-04-24T22:50:19.374Z,38.50
2023-04-24T22:56:16.342Z,38.31
2023-04-24T22:59:16.180Z,39.33
2023-04-24T23:05:15.209Z,39.78
2023-04-24T23:08:15.977Z,39.30
2023-04-24T23:10:47.387Z,39.49
2023-04-24T23:19:20.731Z,39.18
2023-04-24T23:21:49.215Z,39.26
2023-04-24T23:24:18.066Z,39.17
2023-04-24T23:26:46.671Z,39.04
2023-04-24T23:29:24.200Z,39.10
2023-04-24T23:34:49.910Z,38.99
2023-04-24T23:39:49.006Z,38.93
2023-04-24T23:42:17.550Z,39.19
2023-04-24T23:44:51.129Z,38.90
2023-04-24T23:47:28.029Z,38.56
2023-04-24T23:50:36.149Z,39.61
2023-04-24T23:56:47.859Z,39.19
2023-04-24T23:59:25.381Z,39.33
